createdAt,value
2022-08-09T00:00:00.046Z,64.57
2022-08-09T00:02:28.051Z,64.64
2022-08-09T00:05:03.099Z,64.81
2022-08-09T00:07:44.864Z,64.70
2022-08-09T00:10:18.173Z,65.26
2022-08-09T00:12:51.556Z,64.37
2022-08-09T00:15:18.851Z,64.27
2022-08-09T00:18:10.687Z,64.99
2022-08-09T00:20:34.114Z,65.72
2022-08-09T00:23:09.949Z,65.77
2022-08-09T00:25:51.614Z,65.72
2022-08-09T00:28:19.286Z,66.39
2022-08-09T00:30:51.927Z,66.93
2022-08-09T00:33:18.408Z,67.32
2022-08-09T00:35:45.340Z,67.93
2022-08-09T00:38:12.888Z,67.69
2022-08-09T00:40:39.981Z,68.63
2022-08-09T00:44:14.998Z,69.13
2022-08-09T00:46:09.356Z,69.64
2022-08-09T00:48:36.939Z,70.75
2022-08-09T00:51:11.900Z,70.60
2022-08-09T00:53:39.891Z,70.48
2022-08-09T00:56:09.724Z,70.88
2022-08-09T00:58:36.758Z,71.36
2022-08-09T01:01:15.810Z,71.97
2022-08-09T01:04:05.625Z,71.92
2022-08-09T01:07:37.662Z,72.55
2022-08-09T01:10:28.942Z,72.64
2022-08-09T01:13:07.497Z,72.98
2022-08-09T01:15:41.044Z,73.61
2022-08-09T01:18:30.469Z,74.45
2022-08-09T01:21:50.906Z,75.04
2022-08-09T01:24:36.335Z,74.57
2022-08-09T01:27:24.783Z,74.61
2022-08-09T01:29:56.344Z,74.51
2022-08-09T01:32:29.682Z,74.34
2022-08-09T01:35:00.186Z,75.12
2022-08-09T01:38:06.376Z,74.91
2022-08-09T01:40:28.588Z,74.86
2022-08-09T01:42:55.898Z,74.92
2022-08-09T01:45:22.704Z,75.30
2022-08-09T01:47:49.722Z,75.10
2022-08-09T01:50:16.444Z,75.30
2022-08-09T01:52:43.897Z,75.12
2022-08-09T01:55:11.404Z,75.38
2022-08-09T01:57:45.814Z,75.54
2022-08-09T02:00:35.394Z,75.78
2022-08-09T02:03:00.685Z,76.15
2022-08-09T02:05:35.591Z,75.77
2022-08-09T02:08:39.490Z,76.23
2022-08-09T02:10:56.847Z,76.32
2022-08-09T02:13:26.086Z,76.04
2022-08-09T02:16:05.967Z,76.34
2022-08-09T02:18:34.496Z,75.66
2022-08-09T02:21:09.224Z,75.59
2022-08-09T02:23:39.886Z,75.95
2022-08-09T02:26:07.794Z,76.28
2022-08-09T02:28:55.000Z,76.58
2022-08-09T02:31:33.982Z,76.92
2022-08-09T02:34:13.187Z,76.48
2022-08-09T02:36:42.325Z,76.88
2022-08-09T02:39:19.778Z,76.84
2022-08-09T02:42:17.244Z,77.14
2022-08-09T02:44:48.665Z,76.73
2022-08-09T02:47:17.012Z,76.82
2022-08-09T02:50:01.173Z,76.83
2022-08-09T02:52:35.341Z,76.88
2022-08-09T02:55:03.240Z,76.88
2022-08-09T02:58:00.637Z,76.92
2022-08-09T03:00:35.712Z,77.06
2022-08-09T03:03:06.637Z,77.31
2022-08-09T03:05:35.188Z,77.20
2022-08-09T03:08:03.438Z,77.57
2022-08-09T03:10:30.668Z,78.34
2022-08-09T03:12:58.111Z,78.30
2022-08-09T03:15:25.598Z,78.45
2022-08-09T03:18:12.377Z,78.88
2022-08-09T03:20:39.374Z,78.97
2022-08-09T03:23:15.139Z,79.28
2022-08-09T03:25:58.260Z,79.43
2022-08-09T03:28:30.502Z,79.70
2022-08-09T03:30:57.964Z,79.80
2022-08-09T03:33:25.970Z,80.11
2022-08-09T03:36:16.355Z,80.23
2022-08-09T03:38:44.581Z,80.80
2022-08-09T03:41:14.814Z,81.19
2022-08-09T03:43:43.102Z,81.19
2022-08-09T03:46:30.377Z,80.67
2022-08-09T03:48:59.513Z,80.58
2022-08-09T03:51:57.222Z,80.17
2022-08-09T03:54:18.703Z,80.08
2022-08-09T03:56:57.895Z,79.59
2022-08-09T03:59:32.969Z,80.12
2022-08-09T04:02:11.415Z,79.70
2022-08-09T04:04:45.553Z,79.77
2022-08-09T04:07:14.551Z,79.52
2022-08-09T04:09:50.126Z,80.03
2022-08-09T04:12:35.467Z,79.23
2022-08-09T04:15:11.339Z,78.68
2022-08-09T04:17:44.351Z,78.93
2022-08-09T04:20:14.612Z,80.32
2022-08-09T04:22:44.309Z,79.74
2022-08-09T04:25:11.934Z,79.38
2022-08-09T04:27:42.905Z,79.37
2022-08-09T04:30:17.460Z,79.54
2022-08-09T04:32:47.845Z,79.37
2022-08-09T04:35:15.314Z,77.77
2022-08-09T04:37:46.017Z,77.23
2022-08-09T04:40:18.888Z,77.36
2022-08-09T04:42:48.533Z,77.17
2022-08-09T04:45:20.412Z,78.65
2022-08-09T04:47:59.315Z,78.60
2022-08-09T04:50:33.724Z,78.26
2022-08-09T04:53:13.089Z,77.06
2022-08-09T04:55:57.318Z,77.53
2022-08-09T04:58:31.645Z,77.17
2022-08-09T05:01:00.504Z,76.74
2022-08-09T05:03:40.390Z,77.43
2022-08-09T05:06:10.717Z,78.08
2022-08-09T05:08:38.189Z,77.18
2022-08-09T05:11:06.950Z,76.76
2022-08-09T05:13:38.668Z,76.85
2022-08-09T05:16:10.140Z,76.66
2022-08-09T05:18:57.455Z,76.16
2022-08-09T05:21:24.867Z,77.55
2022-08-09T05:24:01.229Z,77.27
2022-08-09T05:26:36.743Z,75.33
2022-08-09T05:29:07.760Z,74.16
2022-08-09T05:31:48.299Z,74.39
2022-08-09T05:34:18.783Z,74.32
2022-08-09T05:36:47.242Z,74.49
2022-08-09T05:39:28.911Z,74.23
2022-08-09T05:42:01.757Z,74.08
2022-08-09T05:44:32.767Z,74.38
2022-08-09T05:47:01.394Z,74.09
2022-08-09T05:50:24.208Z,74.25
2022-08-09T05:52:20.016Z,74.88
2022-08-09T05:54:46.639Z,74.52
2022-08-09T05:57:17.678Z,74.21
2022-08-09T05:59:46.247Z,74.23
2022-08-09T06:02:16.986Z,73.05
2022-08-09T06:04:45.935Z,72.19
2022-08-09T06:07:21.396Z,72.81
2022-08-09T06:09:54.945Z,73.22
2022-08-09T06:12:29.181Z,72.17
2022-08-09T06:14:57.711Z,71.77
2022-08-09T06:17:40.127Z,71.99
2022-08-09T06:20:08.116Z,72.08
2022-08-09T06:22:41.377Z,72.32
2022-08-09T06:25:12.326Z,73.01
2022-08-09T06:27:51.440Z,71.41
2022-08-09T06:30:18.954Z,70.60
2022-08-09T06:33:13.606Z,71.57
2022-08-09T06:35:35.782Z,70.57
2022-08-09T06:38:19.865Z,69.38
2022-08-09T06:40:58.921Z,69.21
2022-08-09T06:43:27.134Z,68.42
2022-08-09T06:46:07.696Z,68.26
2022-08-09T06:48:37.595Z,69.36
2022-08-09T06:51:10.616Z,68.32
2022-08-09T06:53:38.367Z,66.76
2022-08-09T06:56:06.843Z,66.56
2022-08-09T07:00:48.935Z,66.12
2022-08-09T07:01:24.207Z,65.79
2022-08-09T07:03:56.713Z,65.36
2022-08-09T07:06:27.930Z,64.70
2022-08-09T07:08:56.309Z,64.33
2022-08-09T07:11:25.622Z,63.88
2022-08-09T07:14:05.077Z,63.26
2022-08-09T07:16:41.669Z,62.38
2022-08-09T07:19:22.938Z,63.00
2022-08-09T07:21:57.031Z,62.36
2022-08-09T07:24:31.519Z,61.67
2022-08-09T07:27:11.108Z,60.48
2022-08-09T07:29:52.931Z,59.85
2022-08-09T07:32:24.123Z,58.87
2022-08-09T07:35:02.590Z,59.41
2022-08-09T07:37:29.510Z,58.54
2022-08-09T07:39:56.168Z,56.44
2022-08-09T07:42:32.835Z,56.86
2022-08-09T07:45:06.565Z,56.63
2022-08-09T07:48:00.700Z,56.17
2022-08-09T07:50:34.830Z,54.68
2022-08-09T07:53:04.505Z,54.49
2022-08-09T07:56:02.824Z,54.15
2022-08-09T07:58:21.656Z,54.06
2022-08-09T08:00:55.993Z,53.98
2022-08-09T08:03:28.246Z,54.59
2022-08-09T08:05:58.165Z,53.41
2022-08-09T08:09:01.718Z,52.20
2022-08-09T08:12:09.368Z,53.48
2022-08-09T08:13:58.711Z,50.84
2022-08-09T08:16:29.777Z,51.90
2022-08-09T08:18:58.219Z,51.76
2022-08-09T08:21:25.100Z,49.36
2022-08-09T08:23:56.136Z,51.21
2022-08-09T08:26:26.340Z,53.31
2022-08-09T08:29:09.017Z,53.40
2022-08-09T08:31:56.514Z,53.13
2022-08-09T08:34:25.514Z,53.36
2022-08-09T08:36:52.179Z,53.99
2022-08-09T08:39:18.794Z,52.30
2022-08-09T08:41:51.766Z,53.84
2022-08-09T08:44:22.982Z,51.67
2022-08-09T08:47:02.711Z,51.89
2022-08-09T08:49:46.489Z,52.51
2022-08-09T08:52:35.029Z,51.93
2022-08-09T08:55:04.008Z,51.12
2022-08-09T08:57:34.777Z,51.15
2022-08-09T09:00:08.296Z,51.00
2022-08-09T09:02:46.748Z,50.88
2022-08-09T09:05:14.459Z,50.40
2022-08-09T09:07:50.405Z,50.24
2022-08-09T09:10:17.867Z,50.51
2022-08-09T09:12:46.209Z,50.55
2022-08-09T09:15:13.072Z,50.09
2022-08-09T09:17:55.255Z,51.56
2022-08-09T09:20:21.870Z,51.44
2022-08-09T09:23:01.729Z,50.31
2022-08-09T09:26:04.401Z,50.87
2022-08-09T09:29:03.074Z,50.85
2022-08-09T09:32:06.517Z,48.34
2022-08-09T09:34:14.695Z,47.02
2022-08-09T09:36:46.947Z,45.32
2022-08-09T09:39:42.866Z,45.68
2022-08-09T09:42:25.816Z,44.46
2022-08-09T09:45:00.479Z,42.77
2022-08-09T09:47:28.519Z,42.34
2022-08-09T09:50:15.011Z,42.30
2022-08-09T09:52:53.825Z,40.85
2022-08-09T09:55:32.605Z,41.87
2022-08-09T09:58:19.256Z,42.67
2022-08-09T10:00:59.792Z,43.74
2022-08-09T10:03:44.300Z,43.61
2022-08-09T10:06:12.679Z,43.58
2022-08-09T10:08:43.104Z,43.15
2022-08-09T10:11:59.219Z,42.54
2022-08-09T10:14:33.503Z,40.99
2022-08-09T10:17:24.418Z,39.48
2022-08-09T10:19:59.919Z,39.74
2022-08-09T10:22:33.379Z,40.53
2022-08-09T10:25:03.422Z,40.63
2022-08-09T10:27:38.744Z,41.21
2022-08-09T10:31:31.719Z,40.95
2022-08-09T10:33:00.328Z,40.66
2022-08-09T10:35:27.262Z,41.26
2022-08-09T10:37:55.460Z,40.55
2022-08-09T10:40:34.748Z,41.48
2022-08-09T10:43:03.195Z,40.68
2022-08-09T10:45:31.822Z,39.04
2022-08-09T10:48:19.450Z,39.86
2022-08-09T10:51:29.573Z,39.41
2022-08-09T10:54:12.223Z,40.12
2022-08-09T10:56:41.797Z,39.93
2022-08-09T10:59:55.544Z,40.47
2022-08-09T11:03:15.932Z,40.78
2022-08-09T11:05:30.251Z,41.16
2022-08-09T11:08:36.359Z,40.89
2022-08-09T11:11:10.455Z,38.76
2022-08-09T11:13:53.852Z,38.76
2022-08-09T11:16:38.465Z,37.44
2022-08-09T11:19:09.383Z,36.55
2022-08-09T11:22:10.516Z,37.91
2022-08-09T11:25:26.026Z,36.68
2022-08-09T11:28:34.168Z,38.56
2022-08-09T11:31:36.420Z,37.35
2022-08-09T11:34:07.745Z,37.18
2022-08-09T11:36:41.895Z,38.11
2022-08-09T11:39:11.095Z,37.04
2022-08-09T11:41:40.340Z,37.43
2022-08-09T11:44:08.075Z,37.89
2022-08-09T11:46:56.749Z,38.04
2022-08-09T11:50:55.856Z,37.95
2022-08-09T11:53:15.609Z,37.65
2022-08-09T11:55:53.539Z,37.66
2022-08-09T11:58:30.333Z,38.42
2022-08-09T12:01:01.643Z,37.61
2022-08-09T12:03:55.496Z,37.15
2022-08-09T12:06:24.832Z,37.83
2022-08-09T12:08:55.856Z,36.63
2022-08-09T12:11:25.731Z,36.02
2022-08-09T12:14:07.508Z,35.96
2022-08-09T12:16:41.610Z,34.61
2022-08-09T12:19:12.090Z,34.55
2022-08-09T12:21:50.730Z,34.79
2022-08-09T12:24:23.946Z,34.23
2022-08-09T12:28:59.463Z,33.72
2022-08-09T12:29:52.359Z,34.71
2022-08-09T12:32:26.593Z,33.53
2022-08-09T12:35:02.685Z,32.92
2022-08-09T12:37:50.754Z,32.17
2022-08-09T12:40:23.161Z,33.13
2022-08-09T12:42:52.257Z,33.35
2022-08-09T12:45:34.815Z,32.72
2022-08-09T12:48:20.044Z,32.46
2022-08-09T12:50:57.039Z,33.87
2022-08-09T12:53:46.229Z,33.31
2022-08-09T12:56:39.225Z,32.65
2022-08-09T12:59:10.121Z,31.94
2022-08-09T13:01:38.936Z,32.84
2022-08-09T13:04:36.497Z,33.88
2022-08-09T13:07:16.720Z,34.05
2022-08-09T13:09:55.639Z,35.20
2022-08-09T13:12:28.219Z,36.22
2022-08-09T13:15:04.710Z,36.71
2022-08-09T13:18:03.264Z,36.85
2022-08-09T13:20:37.298Z,36.14
2022-08-09T13:24:17.459Z,36.11
2022-08-09T13:26:05.449Z,36.94
2022-08-09T13:28:35.611Z,37.07
2022-08-09T13:32:13.512Z,37.62
2022-08-09T13:33:54.982Z,38.30
2022-08-09T13:36:39.189Z,38.45
2022-08-09T13:41:17.752Z,38.96
2022-08-09T13:42:02.803Z,38.88
2022-08-09T13:44:30.613Z,38.78
2022-08-09T13:47:26.649Z,38.46
2022-08-09T13:49:57.835Z,39.12
2022-08-09T13:52:27.981Z,40.14
2022-08-09T13:54:59.102Z,39.43
2022-08-09T13:57:37.480Z,39.51
2022-08-09T14:00:12.151Z,40.46
2022-08-09T14:02:42.747Z,39.69
2022-08-09T14:06:01.247Z,38.65
2022-08-09T14:08:13.367Z,38.55
2022-08-09T14:10:49.243Z,38.23
2022-08-09T14:13:27.681Z,38.34
2022-08-09T14:16:09.995Z,37.84
2022-08-09T14:18:38.346Z,37.22
2022-08-09T14:21:05.984Z,37.76
2022-08-09T14:23:40.432Z,36.57
2022-08-09T14:26:13.571Z,36.74
2022-08-09T14:28:40.117Z,37.65
2022-08-09T14:31:07.130Z,37.31
2022-08-09T14:33:38.205Z,37.56
2022-08-09T14:36:20.701Z,37.91
2022-08-09T14:38:52.480Z,38.24
2022-08-09T14:41:26.651Z,38.19
2022-08-09T14:44:07.029Z,38.26
2022-08-09T14:46:54.551Z,37.74
2022-08-09T14:49:25.075Z,37.17
2022-08-09T14:51:51.845Z,38.01
2022-08-09T14:54:27.783Z,38.29
2022-08-09T14:56:57.854Z,35.80
2022-08-09T14:59:27.214Z,35.18
2022-08-09T15:01:55.826Z,35.04
2022-08-09T15:04:23.885Z,35.79
2022-08-09T15:06:51.943Z,36.09
2022-08-09T15:10:03.890Z,37.81
2022-08-09T15:12:08.041Z,36.39
2022-08-09T15:14:38.608Z,36.99
2022-08-09T15:17:09.286Z,38.24
2022-08-09T15:19:36.683Z,39.38
2022-08-09T15:22:03.605Z,39.60
2022-08-09T15:24:30.341Z,40.87
2022-08-09T15:26:57.678Z,41.13
2022-08-09T15:30:56.811Z,41.11
2022-08-09T15:32:28.616Z,41.53
2022-08-09T15:34:56.366Z,41.62
2022-08-09T15:37:38.049Z,42.10
2022-08-09T15:40:25.243Z,41.54
2022-08-09T15:42:58.333Z,41.83
2022-08-09T15:45:29.732Z,42.88
2022-08-09T15:48:05.128Z,42.95
2022-08-09T15:50:44.183Z,43.05
2022-08-09T15:53:32.685Z,42.90
2022-08-09T15:56:21.429Z,43.13
2022-08-09T15:58:44.925Z,42.11
2022-08-09T16:01:13.282Z,42.19
2022-08-09T16:03:41.670Z,41.48
2022-08-09T16:06:32.633Z,42.17
2022-08-09T16:08:56.670Z,41.70
2022-08-09T16:11:28.674Z,42.16
2022-08-09T16:14:02.681Z,42.56
2022-08-09T16:16:39.086Z,42.95
2022-08-09T16:19:10.650Z,43.04
2022-08-09T16:21:40.939Z,42.80
2022-08-09T16:24:30.299Z,43.01
2022-08-09T16:26:56.816Z,43.88
2022-08-09T16:29:37.915Z,44.77
2022-08-09T16:32:33.476Z,45.34
2022-08-09T16:34:58.392Z,45.68
2022-08-09T16:37:53.027Z,45.69
2022-08-09T16:40:13.677Z,45.70
2022-08-09T16:42:44.858Z,46.02
2022-08-09T16:45:13.895Z,46.67
2022-08-09T16:48:38.672Z,46.89
2022-08-09T16:50:33.854Z,47.33
2022-08-09T16:53:02.134Z,48.24
2022-08-09T16:55:31.405Z,48.52
2022-08-09T16:58:16.958Z,50.06
2022-08-09T17:00:43.743Z,50.33
2022-08-09T17:03:21.655Z,51.15
2022-08-09T17:06:07.579Z,51.52
2022-08-09T17:08:44.381Z,52.32
2022-08-09T17:11:40.742Z,51.94
2022-08-09T17:14:26.376Z,52.78
2022-08-09T17:16:59.689Z,53.01
2022-08-09T17:19:27.668Z,52.03
2022-08-09T17:22:14.455Z,51.99
2022-08-09T17:24:47.510Z,52.20
2022-08-09T17:27:21.741Z,52.61
2022-08-09T17:29:48.391Z,52.89
2022-08-09T17:32:20.281Z,53.47
2022-08-09T17:35:04.159Z,53.24
2022-08-09T17:38:12.745Z,53.43
2022-08-09T17:40:26.415Z,54.42
2022-08-09T17:42:59.141Z,54.84
2022-08-09T17:45:45.532Z,55.46
2022-08-09T17:48:15.609Z,56.37
2022-08-09T17:50:55.941Z,56.96
2022-08-09T17:53:23.415Z,58.21
2022-08-09T17:55:57.038Z,59.78
2022-08-09T17:58:27.402Z,60.78
2022-08-09T18:00:56.738Z,61.58
2022-08-09T18:03:25.493Z,61.97
2022-08-09T18:05:53.641Z,61.53
2022-08-09T18:08:21.924Z,61.46
2022-08-09T18:11:00.895Z,61.92
2022-08-09T18:13:53.717Z,61.78
2022-08-09T18:16:29.153Z,62.76
2022-08-09T18:18:56.601Z,63.27
2022-08-09T18:21:24.436Z,64.68
2022-08-09T18:24:09.999Z,65.61
2022-08-09T18:26:46.998Z,66.11
2022-08-09T18:30:39.092Z,65.70
2022-08-09T18:32:03.076Z,66.09
2022-08-09T18:34:31.801Z,66.01
2022-08-09T18:36:59.029Z,67.05
2022-08-09T18:39:32.199Z,67.07
2022-08-09T18:42:08.815Z,68.20
2022-08-09T18:44:35.869Z,68.27
2022-08-09T18:47:07.877Z,68.78
2022-08-09T18:49:41.538Z,68.62
2022-08-09T18:52:12.054Z,68.83
2022-08-09T18:54:39.256Z,69.69
2022-08-09T18:57:16.117Z,70.54
2022-08-09T18:59:51.218Z,71.63
2022-08-09T19:02:23.934Z,72.00
2022-08-09T19:05:03.681Z,72.21
2022-08-09T19:07:42.120Z,72.33
2022-08-09T19:10:26.711Z,73.23
2022-08-09T19:13:00.239Z,73.20
2022-08-09T19:15:40.640Z,73.71
2022-08-09T19:18:17.345Z,74.33
2022-08-09T19:20:58.312Z,74.22
2022-08-09T19:24:35.828Z,74.19
2022-08-09T19:26:13.666Z,74.17
2022-08-09T19:28:42.647Z,74.97
2022-08-09T19:31:15.593Z,75.97
2022-08-09T19:33:43.726Z,75.94
2022-08-09T19:36:11.799Z,74.65
2022-08-09T19:38:40.108Z,74.53
2022-08-09T19:41:06.677Z,75.58
2022-08-09T19:43:57.918Z,76.39
2022-08-09T19:46:34.846Z,76.30
2022-08-09T19:50:09.025Z,76.53
2022-08-09T19:51:56.042Z,76.67
2022-08-09T19:54:28.207Z,76.58
2022-08-09T19:56:56.493Z,76.96
2022-08-09T19:59:58.901Z,76.74
2022-08-09T20:02:36.181Z,76.90
2022-08-09T20:04:59.901Z,77.81
2022-08-09T20:07:56.665Z,78.08
2022-08-09T20:10:17.718Z,78.73
2022-08-09T20:12:49.250Z,79.20
2022-08-09T20:16:37.051Z,79.90
2022-08-09T20:18:05.404Z,79.02
2022-08-09T20:20:35.633Z,78.50
2022-08-09T20:23:04.530Z,78.88
2022-08-09T20:25:51.393Z,77.08
2022-08-09T20:28:28.101Z,76.69
2022-08-09T20:31:02.684Z,76.93
2022-08-09T20:33:29.701Z,76.79
2022-08-09T20:36:08.613Z,77.38
2022-08-09T20:38:54.449Z,77.33
2022-08-09T20:41:34.833Z,78.16
2022-08-09T20:44:06.796Z,78.36
2022-08-09T20:46:43.210Z,78.98
2022-08-09T20:49:12.271Z,79.60
2022-08-09T20:51:41.560Z,80.62
2022-08-09T20:54:16.437Z,80.87
2022-08-09T20:56:46.981Z,81.63
2022-08-09T20:59:16.762Z,82.11
2022-08-09T21:01:50.380Z,81.77
2022-08-09T21:05:56.925Z,82.40
2022-08-09T21:07:12.375Z,82.79
2022-08-09T21:09:45.683Z,82.99
2022-08-09T21:12:23.208Z,83.47
2022-08-09T21:14:50.129Z,83.59
2022-08-09T21:18:24.061Z,83.72
2022-08-09T21:20:23.109Z,84.50
2022-08-09T21:22:54.135Z,84.38
2022-08-09T21:25:43.776Z,84.68
2022-08-09T21:28:12.080Z,84.84
2022-08-09T21:30:42.461Z,85.36
2022-08-09T21:33:09.529Z,85.47
2022-08-09T21:35:39.472Z,86.39
2022-08-09T21:38:09.108Z,86.53
2022-08-09T21:40:36.775Z,86.22
2022-08-09T21:43:06.243Z,86.46
2022-08-09T21:45:38.838Z,86.51
2022-08-09T21:48:06.789Z,86.47
2022-08-09T21:50:38.569Z,86.32
2022-08-09T21:53:15.772Z,85.87
2022-08-09T21:55:54.389Z,85.88
2022-08-09T21:58:20.986Z,85.57
2022-08-09T22:00:55.885Z,85.26
2022-08-09T22:03:25.856Z,85.45
2022-08-09T22:05:54.253Z,85.79
2022-08-09T22:08:23.048Z,85.43
2022-08-09T22:11:50.167Z,85.33
2022-08-09T22:13:38.816Z,85.69
2022-08-09T22:16:10.056Z,85.69
2022-08-09T22:18:37.974Z,85.90
2022-08-09T22:21:09.892Z,85.63
2022-08-09T22:23:58.604Z,84.87
2022-08-09T22:26:34.937Z,85.11
2022-08-09T22:29:07.103Z,85.49
2022-08-09T22:31:35.867Z,85.72
2022-08-09T22:34:02.609Z,85.38
2022-08-09T22:36:29.114Z,85.68
2022-08-09T22:39:46.967Z,86.44
2022-08-09T22:41:59.198Z,86.22
2022-08-09T22:44:32.737Z,86.76
2022-08-09T22:48:11.849Z,87.04
2022-08-09T22:49:46.524Z,87.27
2022-08-09T22:52:13.152Z,87.24
2022-08-09T22:54:42.244Z,87.43
2022-08-09T22:57:12.058Z,87.47
2022-08-09T22:59:57.333Z,87.76
2022-08-09T23:02:25.260Z,88.19
2022-08-09T23:04:53.845Z,88.10
2022-08-09T23:08:27.738Z,88.39
2022-08-09T23:10:27.651Z,88.55
2022-08-09T23:12:54.120Z,89.12
2022-08-09T23:15:20.727Z,89.84
2022-08-09T23:17:47.272Z,90.17
2022-08-09T23:20:13.769Z,90.56
2022-08-09T23:22:40.302Z,91.00
2022-08-09T23:25:07.179Z,91.51
2022-08-09T23:27:34.877Z,91.82
2022-08-09T23:30:01.521Z,91.82
2022-08-09T23:32:28.161Z,91.53
2022-08-09T23:34:54.642Z,91.52
2022-08-09T23:37:22.776Z,91.64
2022-08-09T23:39:52.382Z,92.14
2022-08-09T23:42:18.922Z,92.05
2022-08-09T23:44:45.497Z,91.51
2022-08-09T23:47:12.151Z,91.64
2022-08-09T23:49:38.629Z,91.87
2022-08-09T23:52:05.313Z,92.38
2022-08-09T23:54:31.938Z,91.97
2022-08-09T23:56:58.964Z,92.43
2022-08-09T23:59:25.830Z,92.31
